Time;durP1;ratioP1;P1;durP2;ratioP2;P2;SDS_P1;SDS_P2;PMS_P1;PMS_P2;Temp;Humidity;BMP_temperature;BMP_pressure;BME280_temperature;BME280_humidity;BME280_pressure;Samples;Min_cycle;Max_cycle;Signal;HPM_P1;HPM_P2
2021/01/16 00:01:14;;;;;;;5.43;2.93;;;3.60;99.90;;;;;;5011215;28;20229;-80
2021/01/16 00:03:40;;;;;;;5.03;3.90;;;3.60;99.90;;;;;;5010519;28;20215;-87
2021/01/16 00:06:08;;;;;;;4.23;3.20;;;3.60;99.90;;;;;;5010761;28;20214;-86
2021/01/16 00:08:35;;;;;;;4.93;3.97;;;3.60;99.90;;;;;;5009992;28;20237;-87
2021/01/16 00:11:01;;;;;;;5.67;4.80;;;3.60;99.90;;;;;;5010276;28;20195;-85
2021/01/16 00:13:33;;;;;;;4.87;3.73;;;3.60;99.90;;;;;;5010680;28;20520;-85
2021/01/16 00:16:00;;;;;;;4.17;3.67;;;3.60;99.90;;;;;;5010887;28;20199;-85
2021/01/16 00:18:27;;;;;;;7.53;5.13;;;3.60;99.90;;;;;;5011286;28;20495;-86
2021/01/16 00:20:55;;;;;;;6.60;4.77;;;3.60;99.90;;;;;;5010198;28;20832;-87
2021/01/16 00:23:22;;;;;;;8.13;4.67;;;3.60;99.90;;;;;;5010452;28;20231;-85
2021/01/16 00:25:49;;;;;;;7.63;6.20;;;3.50;99.90;;;;;;5010943;28;20254;-88
2021/01/16 00:28:18;;;;;;;7.63;5.87;;;3.60;99.90;;;;;;5011664;28;20199;-85
2021/01/16 00:30:45;;;;;;;7.77;5.77;;;3.60;99.90;;;;;;5010290;28;20294;-87
2021/01/16 00:33:18;;;;;;;5.40;4.50;;;3.50;99.90;;;;;;5010243;28;20199;-85
2021/01/16 00:35:46;;;;;;;9.10;6.30;;;3.50;99.90;;;;;;5009684;28;20207;-87
2021/01/16 00:38:13;;;;;;;7.17;5.97;;;3.50;99.90;;;;;;5008999;28;20273;-87
2021/01/16 00:40:39;;;;;;;8.60;7.17;;;3.50;99.90;;;;;;5010031;28;20257;-86
2021/01/16 00:43:09;;;;;;;10.37;7.43;;;3.50;99.90;;;;;;5010118;28;20226;-86
2021/01/16 00:45:36;;;;;;;9.10;7.40;;;3.50;99.90;;;;;;5005546;28;20864;-87
2021/01/16 00:48:10;;;;;;;10.50;7.60;;;3.50;99.90;;;;;;5003398;28;20257;-87
2021/01/16 00:50:36;;;;;;;11.10;7.63;;;3.50;99.90;;;;;;5008351;28;20207;-87
2021/01/16 00:53:04;;;;;;;10.80;7.63;;;3.40;99.90;;;;;;5009955;28;20206;-86
2021/01/16 00:55:30;;;;;;;10.23;7.90;;;3.50;99.90;;;;;;5009927;28;20196;-86
2021/01/16 00:57:57;;;;;;;10.20;7.40;;;3.40;99.90;;;;;;5008405;28;20199;-85
2021/01/16 01:00:26;;;;;;;10.50;7.17;;;3.40;99.90;;;;;;5010225;28;20843;-81
2021/01/16 01:02:53;;;;;;;8.23;6.97;;;3.40;99.90;;;;;;5014185;28;20219;-85
2021/01/16 01:05:22;;;;;;;12.13;7.17;;;3.40;99.90;;;;;;5006262;28;20203;-86
2021/01/16 01:07:50;;;;;;;9.37;7.10;;;3.30;99.90;;;;;;5014202;28;20196;-86
2021/01/16 01:10:21;;;;;;;11.10;8.10;;;3.30;99.90;;;;;;5013833;28;20196;-85
2021/01/16 01:12:49;;;;;;;13.77;9.00;;;3.30;99.90;;;;;;5012698;28;20265;-86
2021/01/16 01:15:15;;;;;;;11.20;7.87;;;3.30;99.90;;;;;;5013861;28;20207;-85
2021/01/16 01:17:41;;;;;;;10.30;8.00;;;3.30;99.90;;;;;;5013472;28;20199;-87
2021/01/16 01:20:09;;;;;;;12.83;9.10;;;3.30;99.90;;;;;;5012447;28;20212;-87
2021/01/16 01:22:37;;;;;;;10.37;7.50;;;3.30;99.90;;;;;;5013470;28;20272;-85
2021/01/16 01:25:04;;;;;;;12.37;8.83;;;3.30;99.90;;;;;;5013862;28;20199;-87
2021/01/16 01:27:31;;;;;;;9.17;7.10;;;3.30;99.90;;;;;;5013230;28;20269;-87
2021/01/16 01:29:59;;;;;;;9.60;8.07;;;3.30;99.90;;;;;;5013874;28;20204;-86
2021/01/16 01:32:25;;;;;;;10.77;7.83;;;3.30;99.90;;;;;;5017350;28;20202;-87
2021/01/16 01:34:51;;;;;;;9.40;7.47;;;3.20;99.90;;;;;;5015736;28;20215;-87
2021/01/16 01:37:18;;;;;;;10.90;8.00;;;3.20;99.90;;;;;;5013733;28;20214;-87
2021/01/16 01:39:44;;;;;;;13.03;10.10;;;3.20;99.90;;;;;;5015994;28;20204;-87
2021/01/16 01:42:15;;;;;;;13.20;9.00;;;3.20;99.90;;;;;;5013275;28;20203;-87
2021/01/16 01:44:42;;;;;;;12.63;9.77;;;3.20;99.90;;;;;;5013859;28;20234;-87
2021/01/16 01:47:11;;;;;;;12.50;9.70;;;3.20;99.90;;;;;;5008603;28;20223;-87
2021/01/16 01:49:50;;;;;;;13.83;9.60;;;3.20;99.90;;;;;;5009584;28;20294;-80
2021/01/16 01:52:19;;;;;;;14.83;11.00;;;3.20;99.90;;;;;;5007077;28;20191;-86
2021/01/16 01:54:51;;;;;;;14.17;10.17;;;3.20;99.90;;;;;;5005824;28;20316;-86
2021/01/16 01:57:20;;;;;;;15.47;11.00;;;3.10;99.90;;;;;;5003486;28;20191;-87
2021/01/16 01:59:48;;;;;;;14.70;10.77;;;3.20;99.90;;;;;;5013609;28;20204;-84
2021/01/16 02:02:16;;;;;;;16.00;11.23;;;3.10;99.90;;;;;;5012287;28;20261;-87
2021/01/16 02:04:46;;;;;;;14.70;10.93;;;3.10;99.90;;;;;;5008330;28;20203;-87
2021/01/16 02:07:29;;;;;;;13.67;10.23;;;3.10;99.90;;;;;;5011911;28;20258;-88
2021/01/16 02:09:56;;;;;;;14.53;10.87;;;3.10;99.90;;;;;;5012947;28;20685;-86
2021/01/16 02:12:23;;;;;;;14.97;9.53;;;3.10;99.90;;;;;;5006461;28;20428;-80
2021/01/16 02:15:02;;;;;;;15.93;10.97;;;3.10;99.90;;;;;;5006109;28;20218;-82
2021/01/16 02:17:33;;;;;;;15.53;10.40;;;3.10;99.90;;;;;;5007874;28;20215;-79
2021/01/16 02:20:08;;;;;;;13.83;10.60;;;3.10;99.90;;;;;;5008459;28;20207;-80
2021/01/16 02:22:58;;;;;;;14.83;11.03;;;3.10;99.90;;;;;;5006927;28;20227;-83
2021/01/16 02:25:37;;;;;;;14.10;10.53;;;3.10;99.90;;;;;;5006536;28;20195;-84
2021/01/16 02:28:07;;;;;;;13.87;10.00;;;3.10;99.90;;;;;;5005600;28;20838;-78
2021/01/16 02:30:34;;;;;;;16.40;11.40;;;3.10;99.90;;;;;;5005519;28;20607;-82
2021/01/16 02:33:02;;;;;;;15.03;10.97;;;3.10;99.90;;;;;;5007059;28;20199;-81
2021/01/16 02:35:31;;;;;;;14.10;10.93;;;3.10;99.90;;;;;;5005698;28;20207;-79
2021/01/16 02:38:19;;;;;;;15.43;11.10;;;3.10;99.90;;;;;;5005953;28;20246;-84
2021/01/16 02:40:51;;;;;;;14.83;11.03;;;3.10;99.90;;;;;;5006935;28;20231;-83
2021/01/16 02:43:33;;;;;;;20.53;11.13;;;3.00;99.90;;;;;;5007174;28;20211;-82
2021/01/16 02:46:22;;;;;;;17.53;10.97;;;3.10;99.90;;;;;;5005797;28;20207;-78
2021/01/16 02:49:04;;;;;;;15.50;11.03;;;3.00;99.90;;;;;;5001561;28;20207;-83
2021/01/16 02:51:38;;;;;;;13.57;10.27;;;3.00;99.90;;;;;;5006062;28;20203;-79
2021/01/16 02:54:07;;;;;;;13.97;10.33;;;3.00;99.90;;;;;;5005673;28;20325;-82
2021/01/16 02:56:36;;;;;;;14.80;11.57;;;3.10;99.90;;;;;;5006023;28;20207;-84
2021/01/16 02:59:04;;;;;;;18.27;11.10;;;3.10;99.90;;;;;;5006352;28;20203;-79
2021/01/16 03:01:30;;;;;;;14.53;10.43;;;3.00;99.90;;;;;;5004903;28;20195;-78
2021/01/16 03:03:56;;;;;;;13.43;9.90;;;3.00;99.90;;;;;;5006916;28;20234;-79
2021/01/16 03:06:24;;;;;;;13.57;9.90;;;3.00;99.90;;;;;;5006170;28;20203;-86
2021/01/16 03:08:50;;;;;;;15.30;10.67;;;3.10;99.90;;;;;;5005740;28;20200;-84
2021/01/16 03:11:17;;;;;;;15.93;10.80;;;3.10;99.90;;;;;;5006313;28;20910;-79
2021/01/16 03:13:47;;;;;;;14.63;10.60;;;3.10;99.90;;;;;;5005547;28;20266;-82
2021/01/16 03:16:21;;;;;;;14.27;10.97;;;3.10;99.90;;;;;;5008537;28;20218;-83
2021/01/16 03:18:55;;;;;;;15.30;10.80;;;3.10;99.90;;;;;;5007505;28;20246;-78
2021/01/16 03:21:21;;;;;;;17.53;11.93;;;3.10;99.90;;;;;;5008373;28;20268;-82
2021/01/16 03:23:48;;;;;;;15.10;11.20;;;3.10;99.90;;;;;;5008490;28;20222;-83
2021/01/16 03:26:14;;;;;;;15.07;10.80;;;3.00;99.90;;;;;;5008122;28;20207;-83
2021/01/16 03:28:40;;;;;;;15.50;11.47;;;3.10;99.90;;;;;;5007822;28;20208;-82
2021/01/16 03:31:07;;;;;;;15.07;11.20;;;3.10;99.90;;;;;;5008296;28;20203;-80
2021/01/16 03:33:34;;;;;;;15.60;11.10;;;3.10;99.90;;;;;;5008566;28;20276;-86
2021/01/16 03:36:00;;;;;;;15.07;11.50;;;3.10;99.90;;;;;;5008760;28;20245;-85
2021/01/16 03:38:27;;;;;;;13.17;10.23;;;3.10;99.90;;;;;;5008204;28;20199;-86
2021/01/16 03:40:53;;;;;;;16.17;11.53;;;3.00;99.90;;;;;;5007787;28;20739;-84
2021/01/16 03:43:19;;;;;;;14.40;11.40;;;3.00;99.90;;;;;;5008093;28;20272;-85
2021/01/16 03:45:45;;;;;;;13.40;10.77;;;3.00;99.90;;;;;;5007766;28;20208;-84
2021/01/16 03:48:11;;;;;;;15.90;12.47;;;3.00;99.90;;;;;;5009146;28;20231;-87
2021/01/16 03:50:39;;;;;;;13.90;10.80;;;3.00;99.90;;;;;;5007426;28;20214;-79
2021/01/16 03:53:05;;;;;;;16.73;11.43;;;3.00;99.90;;;;;;5009065;28;20792;-82
2021/01/16 03:55:31;;;;;;;14.70;11.87;;;3.00;99.90;;;;;;5008942;28;20199;-87
2021/01/16 03:57:57;;;;;;;14.90;12.00;;;3.00;99.90;;;;;;5009348;28;20237;-86
2021/01/16 04:00:24;;;;;;;14.57;11.37;;;3.00;99.90;;;;;;5007156;28;20573;-79
2021/01/16 04:02:50;;;;;;;15.27;11.00;;;3.00;99.90;;;;;;5006042;28;20710;-81
2021/01/16 04:05:16;;;;;;;16.97;12.10;;;3.00;99.90;;;;;;5007558;28;20266;-87
2021/01/16 04:07:48;;;;;;;17.80;11.33;;;3.00;99.90;;;;;;5007779;28;20273;-79
2021/01/16 04:10:15;;;;;;;13.40;10.17;;;2.90;99.90;;;;;;5006240;28;20285;-79
2021/01/16 04:12:41;;;;;;;16.77;10.47;;;2.90;99.90;;;;;;5006491;28;20361;-81
2021/01/16 04:15:09;;;;;;;15.13;10.47;;;2.90;99.90;;;;;;5004586;28;20270;-86
2021/01/16 04:17:36;;;;;;;15.00;10.67;;;3.00;99.90;;;;;;5007374;28;20593;-84
2021/01/16 04:20:02;;;;;;;15.40;10.97;;;3.00;99.90;;;;;;5006237;28;20222;-81
2021/01/16 04:22:29;;;;;;;16.03;11.40;;;3.00;99.90;;;;;;5005958;28;20832;-83
2021/01/16 04:24:56;;;;;;;14.53;11.20;;;3.00;99.90;;;;;;5005600;28;20218;-85
2021/01/16 04:27:22;;;;;;;14.70;10.23;;;2.90;99.90;;;;;;5006932;28;20231;-85
2021/01/16 04:29:48;;;;;;;14.37;10.60;;;2.90;99.90;;;;;;5006487;28;20199;-79
2021/01/16 04:32:15;;;;;;;17.00;11.03;;;2.90;99.90;;;;;;5006448;28;20626;-82
2021/01/16 04:34:41;;;;;;;13.90;10.87;;;2.90;99.90;;;;;;5006422;28;20195;-82
2021/01/16 04:37:07;;;;;;;14.90;10.37;;;2.90;99.90;;;;;;5012812;28;20218;-80
2021/01/16 04:39:33;;;;;;;13.97;10.67;;;2.90;99.90;;;;;;5013978;28;20246;-87
2021/01/16 04:42:03;;;;;;;15.13;10.97;;;2.90;99.90;;;;;;5013471;28;20214;-80
2021/01/16 04:44:35;;;;;;;16.10;11.53;;;2.90;99.90;;;;;;5012134;28;20643;-81
2021/01/16 04:47:03;;;;;;;14.03;10.37;;;2.90;99.90;;;;;;5014004;28;20258;-83
2021/01/16 04:49:30;;;;;;;13.97;10.03;;;2.90;99.90;;;;;;4994623;28;20710;-79
2021/01/16 04:51:57;;;;;;;12.57;9.77;;;2.90;99.90;;;;;;4992742;28;20204;-79
2021/01/16 04:54:24;;;;;;;15.63;11.23;;;3.00;99.90;;;;;;4993062;28;20227;-80
2021/01/16 04:56:50;;;;;;;14.10;10.00;;;2.90;99.90;;;;;;4994030;28;20211;-86
2021/01/16 04:59:19;;;;;;;12.80;10.17;;;3.00;99.90;;;;;;4994392;28;20204;-86
2021/01/16 05:01:46;;;;;;;14.37;9.73;;;3.00;99.90;;;;;;5013919;28;20214;-87
2021/01/16 05:04:16;;;;;;;13.93;9.33;;;3.00;99.90;;;;;;5014880;28;20325;-87
2021/01/16 05:06:45;;;;;;;9.90;7.80;;;3.00;99.90;;;;;;5014291;28;20234;-86
2021/01/16 05:09:11;;;;;;;10.33;8.10;;;3.10;99.90;;;;;;5015835;28;20261;-87
2021/01/16 05:11:42;;;;;;;9.70;7.13;;;3.10;99.90;;;;;;5015131;28;20210;-86
2021/01/16 05:14:15;;;;;;;11.10;7.77;;;3.10;99.90;;;;;;5015683;28;20711;-82
2021/01/16 05:16:57;;;;;;;9.43;7.07;;;3.20;99.90;;;;;;5015218;28;20370;-86
2021/01/16 05:19:26;;;;;;;11.30;7.07;;;3.20;99.90;;;;;;5014872;28;20203;-83
2021/01/16 05:21:53;;;;;;;8.20;5.97;;;3.30;99.90;;;;;;5015648;28;20203;-86
2021/01/16 05:24:19;;;;;;;11.47;7.03;;;3.30;99.90;;;;;;5013475;28;20285;-86
2021/01/16 05:26:59;;;;;;;8.33;6.43;;;3.40;99.90;;;;;;5013997;28;20214;-86
2021/01/16 05:29:26;;;;;;;10.10;6.63;;;3.40;99.90;;;;;;5015575;28;21007;-81
2021/01/16 05:31:55;;;;;;;9.50;6.70;;;3.50;99.90;;;;;;5014534;28;20203;-86
2021/01/16 05:34:24;;;;;;;10.13;6.63;;;3.60;99.90;;;;;;5015570;28;20524;-85
2021/01/16 05:36:51;;;;;;;10.63;7.63;;;3.60;99.90;;;;;;5015083;28;20199;-86
2021/01/16 05:39:18;;;;;;;10.40;6.73;;;3.60;99.90;;;;;;5013830;28;20199;-81
2021/01/16 05:41:45;;;;;;;10.87;7.07;;;3.60;99.90;;;;;;5015278;28;20191;-84
2021/01/16 05:44:12;;;;;;;11.10;6.63;;;3.60;99.90;;;;;;5015109;28;20219;-85
2021/01/16 05:46:43;;;;;;;11.27;7.10;;;3.70;99.90;;;;;;5012511;28;20215;-85
2021/01/16 05:49:14;;;;;;;10.70;6.60;;;3.70;99.90;;;;;;5012029;28;20200;-84
2021/01/16 05:51:44;;;;;;;9.47;6.97;;;3.70;99.90;;;;;;5012047;28;20225;-84
2021/01/16 05:54:12;;;;;;;9.97;6.20;;;3.70;99.90;;;;;;5012225;28;20258;-84
2021/01/16 05:56:39;;;;;;;9.73;7.00;;;3.70;99.90;;;;;;5012122;28;20207;-81
2021/01/16 05:59:10;;;;;;;9.87;6.90;;;3.70;99.90;;;;;;5012231;28;20203;-83
2021/01/16 06:01:38;;;;;;;10.13;6.13;;;3.70;99.90;;;;;;5011761;28;20253;-84
2021/01/16 06:04:05;;;;;;;9.70;7.27;;;3.70;99.90;;;;;;5011168;28;20258;-84
2021/01/16 06:06:35;;;;;;;8.43;6.93;;;3.70;99.90;;;;;;5012933;28;20207;-85
2021/01/16 06:09:02;;;;;;;10.73;6.33;;;3.70;99.90;;;;;;5011879;28;20623;-84
2021/01/16 06:11:36;;;;;;;12.73;6.90;;;3.80;99.90;;;;;;5012777;28;20218;-83
2021/01/16 06:14:05;;;;;;;9.17;6.80;;;3.70;99.90;;;;;;5011502;28;20217;-83
2021/01/16 06:16:46;;;;;;;10.63;6.43;;;3.70;99.90;;;;;;5012776;28;20203;-85
2021/01/16 06:19:18;;;;;;;10.17;6.20;;;3.70;99.90;;;;;;5012757;28;20610;-82
2021/01/16 06:21:46;;;;;;;9.70;6.43;;;3.70;99.90;;;;;;5011657;28;20274;-82
2021/01/16 06:24:15;;;;;;;10.67;6.77;;;3.70;99.90;;;;;;5010028;28;20653;-83
2021/01/16 06:26:42;;;;;;;10.70;6.67;;;3.80;99.90;;;;;;5006493;28;20662;-85
2021/01/16 06:29:25;;;;;;;9.77;6.23;;;3.80;99.90;;;;;;5013884;28;20195;-80
2021/01/16 06:31:51;;;;;;;12.90;7.13;;;3.80;99.90;;;;;;5021704;28;20207;-85
2021/01/16 06:34:29;;;;;;;10.37;6.63;;;3.90;99.90;;;;;;5020599;28;20203;-80
2021/01/16 06:37:05;;;;;;;11.47;7.27;;;3.90;99.90;;;;;;5019727;28;20195;-85
2021/01/16 06:39:35;;;;;;;11.00;7.03;;;3.90;99.90;;;;;;5019242;28;20203;-84
2021/01/16 06:42:07;;;;;;;12.30;6.60;;;3.90;99.90;;;;;;5009442;28;20571;-85
2021/01/16 06:44:33;;;;;;;9.87;6.80;;;3.90;99.90;;;;;;5006461;28;20238;-83
2021/01/16 06:47:00;;;;;;;12.00;7.57;;;3.90;99.90;;;;;;5008672;28;20223;-86
2021/01/16 06:49:28;;;;;;;10.07;7.40;;;3.80;99.90;;;;;;5009854;28;20215;-81
2021/01/16 06:51:55;;;;;;;10.83;7.20;;;3.90;99.90;;;;;;5010050;28;20203;-82
2021/01/16 06:54:24;;;;;;;16.63;7.77;;;3.80;99.90;;;;;;5008943;28;20253;-85
2021/01/16 06:57:01;;;;;;;9.97;7.27;;;3.80;99.90;;;;;;5009770;28;20199;-81
2021/01/16 06:59:28;;;;;;;10.50;7.30;;;3.80;99.90;;;;;;5009116;28;20203;-81
2021/01/16 07:01:56;;;;;;;12.30;7.67;;;3.90;99.90;;;;;;5003660;28;20191;-82
2021/01/16 07:04:23;;;;;;;11.67;8.27;;;3.90;99.90;;;;;;5002730;28;20230;-79
2021/01/16 07:06:51;;;;;;;11.43;7.50;;;3.90;99.90;;;;;;5008827;28;20574;-80
2021/01/16 07:09:18;;;;;;;12.47;8.23;;;3.90;99.90;;;;;;5009747;28;20211;-83
2021/01/16 07:11:48;;;;;;;10.50;7.40;;;3.80;99.90;;;;;;5007975;28;20211;-82
2021/01/16 07:14:15;;;;;;;11.60;8.00;;;3.80;99.90;;;;;;5008225;28;20195;-80
2021/01/16 07:16:43;;;;;;;13.03;8.00;;;3.80;99.90;;;;;;5008490;28;20283;-85
2021/01/16 07:19:09;;;;;;;12.57;8.43;;;3.80;99.90;;;;;;5008617;28;20646;-84
2021/01/16 07:21:40;;;;;;;11.60;8.20;;;3.80;99.90;;;;;;5008008;28;20203;-82
2021/01/16 07:24:09;;;;;;;12.63;8.93;;;3.80;99.90;;;;;;5008243;28;20325;-83
2021/01/16 07:26:36;;;;;;;12.60;8.33;;;3.80;99.90;;;;;;5008702;28;20230;-86
2021/01/16 07:29:07;;;;;;;12.57;8.93;;;3.80;99.90;;;;;;5008774;28;20199;-86
2021/01/16 07:31:37;;;;;;;13.70;9.53;;;3.80;99.90;;;;;;5007003;28;20203;-81
2021/01/16 07:34:04;;;;;;;14.10;8.97;;;3.80;99.90;;;;;;5007593;28;20227;-79
2021/01/16 07:36:31;;;;;;;12.70;8.60;;;3.80;99.90;;;;;;5007096;28;20214;-84
2021/01/16 07:39:02;;;;;;;15.23;9.50;;;3.70;99.90;;;;;;5004400;28;20207;-83
2021/01/16 07:41:31;;;;;;;14.90;9.50;;;3.80;99.90;;;;;;5004678;28;20235;-87
2021/01/16 07:44:06;;;;;;;15.90;9.30;;;3.80;99.90;;;;;;5005529;28;20261;-80
2021/01/16 07:46:34;;;;;;;17.50;10.10;;;3.70;99.90;;;;;;5004312;28;20227;-80
2021/01/16 07:49:02;;;;;;;13.97;9.23;;;3.70;99.90;;;;;;5005335;28;20199;-79
2021/01/16 07:51:33;;;;;;;11.87;8.70;;;3.70;99.90;;;;;;5006179;28;20848;-86
2021/01/16 07:54:05;;;;;;;14.13;8.70;;;3.70;99.90;;;;;;5004328;28;20639;-83
2021/01/16 07:56:40;;;;;;;9.80;7.77;;;3.70;99.90;;;;;;5006217;28;20442;-80
2021/01/16 07:59:14;;;;;;;12.27;8.53;;;3.70;99.90;;;;;;5006368;28;20209;-81
2021/01/16 08:02:24;;;;;;;16.23;9.33;;;3.60;99.90;;;;;;5002494;28;20211;-83
2021/01/16 08:05:03;;;;;;;11.87;8.93;;;3.60;99.90;;;;;;4949566;28;20239;-81
2021/01/16 08:07:49;;;;;;;12.80;10.07;;;3.60;99.90;;;;;;4986508;28;20596;-85
2021/01/16 08:10:18;;;;;;;12.30;8.80;;;3.60;99.90;;;;;;4986133;28;20222;-81
2021/01/16 08:12:47;;;;;;;13.37;9.47;;;3.60;99.90;;;;;;4986563;28;20200;-85
2021/01/16 08:15:16;;;;;;;13.87;9.60;;;3.60;99.90;;;;;;4986467;28;20250;-85
2021/01/16 08:17:46;;;;;;;14.23;10.00;;;3.60;99.90;;;;;;4986364;28;20490;-79
2021/01/16 08:20:20;;;;;;;13.87;9.50;;;3.60;99.90;;;;;;4991207;28;20207;-83
2021/01/16 08:22:51;;;;;;;15.43;9.03;;;3.60;99.90;;;;;;5005767;28;20536;-83
2021/01/16 08:25:22;;;;;;;16.83;10.60;;;3.60;99.90;;;;;;5007166;28;20242;-86
2021/01/16 08:27:50;;;;;;;14.33;9.60;;;3.60;99.90;;;;;;5005314;28;20218;-82
2021/01/16 08:47:16;;;;;;;13.90;8.70;;;3.60;99.90;;;;;;4921701;28;20219;-81
2021/01/16 08:49:42;;;;;;;12.53;8.23;;;3.50;99.90;;;;;;4946556;29;20884;-81
2021/01/16 08:52:09;;;;;;;14.23;9.53;;;3.50;99.90;;;;;;4947122;29;20205;-83
2021/01/16 08:54:36;;;;;;;14.37;8.70;;;3.60;99.90;;;;;;4975456;28;20235;-82
2021/01/16 08:57:14;;;;;;;12.07;7.50;;;3.60;99.90;;;;;;5006515;28;20199;-80
2021/01/16 08:59:43;;;;;;;11.10;7.33;;;3.60;99.90;;;;;;5005192;28;20206;-82
2021/01/16 09:02:12;;;;;;;11.50;7.90;;;3.60;99.90;;;;;;5005032;28;20583;-83
2021/01/16 09:04:39;;;;;;;11.60;8.17;;;3.60;99.90;;;;;;5005861;28;20231;-82
2021/01/16 09:07:13;;;;;;;14.40;7.40;;;3.60;99.90;;;;;;5004606;28;20322;-81
2021/01/16 09:09:41;;;;;;;10.93;8.13;;;3.60;99.90;;;;;;5002706;28;20210;-83
2021/01/16 09:12:12;;;;;;;12.07;8.00;;;3.70;99.90;;;;;;5001801;28;20203;-83
2021/01/16 09:14:40;;;;;;;11.70;7.80;;;3.60;99.90;;;;;;5003015;28;20204;-82
2021/01/16 09:17:19;;;;;;;10.53;7.43;;;3.60;99.90;;;;;;5004104;28;20211;-79
2021/01/16 09:19:52;;;;;;;13.63;7.63;;;3.60;99.90;;;;;;5002219;28;20207;-79
2021/01/16 09:22:20;;;;;;;13.90;8.23;;;3.60;99.90;;;;;;5006366;28;20298;-83
2021/01/16 09:24:47;;;;;;;11.73;8.83;;;3.60;99.90;;;;;;5008695;28;20862;-83
2021/01/16 09:27:24;;;;;;;11.50;8.30;;;3.70;99.90;;;;;;5008588;28;20204;-86
2021/01/16 09:29:51;;;;;;;11.17;8.00;;;3.60;99.90;;;;;;5009885;28;20211;-81
2021/01/16 09:32:33;;;;;;;11.03;7.77;;;3.70;99.90;;;;;;5007626;28;20207;-78
2021/01/16 09:35:00;;;;;;;11.27;8.43;;;3.70;99.90;;;;;;5008055;28;20211;-80
2021/01/16 09:37:27;;;;;;;11.07;8.40;;;3.70;99.90;;;;;;4999771;28;20204;-80
2021/01/16 09:40:07;;;;;;;12.73;8.43;;;3.70;99.90;;;;;;4986944;28;20910;-79
2021/01/16 09:42:43;;;;;;;10.77;7.90;;;3.80;99.90;;;;;;5007465;28;20199;-80
2021/01/16 09:45:11;;;;;;;10.63;7.90;;;3.80;99.90;;;;;;5007157;28;20300;-79
2021/01/16 09:47:56;;;;;;;12.63;8.33;;;3.70;99.90;;;;;;5007082;28;20563;-82
2021/01/16 09:50:28;;;;;;;12.03;8.50;;;3.80;99.90;;;;;;4999779;28;20195;-85
2021/01/16 09:52:57;;;;;;;13.40;8.10;;;3.80;99.90;;;;;;5006439;28;20218;-83
2021/01/16 09:55:31;;;;;;;12.57;8.50;;;3.80;99.90;;;;;;5006742;28;21079;-79
2021/01/16 09:57:57;;;;;;;11.30;7.83;;;3.80;99.90;;;;;;5006271;28;20725;-79
2021/01/16 10:00:29;;;;;;;10.87;8.07;;;3.80;99.90;;;;;;5005408;28;20238;-81
2021/01/16 10:03:05;;;;;;;13.47;8.60;;;3.80;99.90;;;;;;5005637;28;20199;-79
2021/01/16 10:05:37;;;;;;;12.57;9.30;;;3.80;99.90;;;;;;5005132;28;20206;-81
2021/01/16 10:08:05;;;;;;;13.33;8.90;;;3.70;99.90;;;;;;5009005;28;20238;-83
2021/01/16 10:10:45;;;;;;;12.03;8.43;;;3.80;99.90;;;;;;5009983;28;20194;-79
2021/01/16 10:13:12;;;;;;;13.60;9.63;;;3.80;99.90;;;;;;5010349;28;20355;-81
2021/01/16 10:15:50;;;;;;;12.03;8.93;;;3.70;99.90;;;;;;5006754;28;20206;-79
2021/01/16 10:18:21;;;;;;;10.87;8.37;;;3.70;99.90;;;;;;5007051;28;20607;-80
2021/01/16 10:21:02;;;;;;;14.13;8.63;;;3.80;99.90;;;;;;5008247;28;20210;-79
2021/01/16 10:23:30;;;;;;;13.33;8.97;;;3.80;99.90;;;;;;5008478;28;20231;-86
2021/01/16 10:26:00;;;;;;;15.17;9.77;;;3.80;99.90;;;;;;5008754;28;20253;-82
2021/01/16 10:28:28;;;;;;;16.03;10.53;;;3.80;99.90;;;;;;5009329;28;20206;-85
2021/01/16 10:30:59;;;;;;;13.33;10.17;;;3.80;99.90;;;;;;5007745;28;20295;-82
2021/01/16 10:33:34;;;;;;;14.13;9.67;;;3.80;99.90;;;;;;5006400;28;20191;-80
2021/01/16 10:36:07;;;;;;;13.83;10.57;;;3.80;99.90;;;;;;5005382;28;20195;-80
2021/01/16 10:38:42;;;;;;;20.00;10.03;;;3.80;99.90;;;;;;5006448;28;20215;-80
2021/01/16 10:41:10;;;;;;;15.50;10.37;;;3.80;99.90;;;;;;5006711;28;20207;-81
2021/01/16 10:43:36;;;;;;;12.77;9.60;;;3.80;99.90;;;;;;5003923;28;20227;-80
2021/01/16 10:46:10;;;;;;;16.30;11.03;;;3.80;99.90;;;;;;5005889;28;20208;-79
2021/01/16 10:48:38;;;;;;;14.73;11.13;;;3.80;99.90;;;;;;5005588;28;20847;-79
2021/01/16 10:51:09;;;;;;;16.03;11.27;;;3.80;99.90;;;;;;5006211;28;20779;-80
2021/01/16 10:53:37;;;;;;;14.93;10.53;;;3.80;99.90;;;;;;5005314;28;20231;-87
2021/01/16 10:56:14;;;;;;;14.80;10.80;;;3.80;99.90;;;;;;5005959;28;20711;-78
2021/01/16 10:58:43;;;;;;;14.67;10.60;;;3.80;99.90;;;;;;5005369;28;20203;-82
2021/01/16 11:01:10;;;;;;;15.57;10.57;;;3.80;99.90;;;;;;5009473;28;20214;-86
2021/01/16 11:03:37;;;;;;;16.77;11.97;;;3.80;99.90;;;;;;5010261;28;20262;-83
2021/01/16 11:06:06;;;;;;;14.87;10.57;;;3.80;99.90;;;;;;5009095;28;20210;-79
2021/01/16 11:08:34;;;;;;;15.53;10.73;;;3.80;99.90;;;;;;5005414;28;21031;-78
2021/01/16 11:11:01;;;;;;;18.40;10.83;;;3.80;99.90;;;;;;5007031;28;20208;-85
2021/01/16 11:13:29;;;;;;;16.07;10.90;;;3.70;99.90;;;;;;5010489;28;20203;-83
2021/01/16 11:15:57;;;;;;;15.97;11.27;;;3.70;99.90;;;;;;5010933;28;20212;-85
2021/01/16 11:18:35;;;;;;;15.43;10.43;;;3.70;99.90;;;;;;5010022;28;20207;-85
2021/01/16 11:21:06;;;;;;;12.70;10.37;;;3.70;99.90;;;;;;5010142;28;20210;-83
2021/01/16 11:23:58;;;;;;;14.00;10.77;;;3.70;99.90;;;;;;5009377;28;20231;-85
2021/01/16 11:26:25;;;;;;;16.17;10.80;;;3.60;99.90;;;;;;5005714;28;20244;-86
2021/01/16 11:28:54;;;;;;;16.97;10.20;;;3.60;99.90;;;;;;5004073;28;20560;-88
2021/01/16 11:31:34;;;;;;;13.30;9.83;;;3.60;99.90;;;;;;5003749;28;20659;-85
2021/01/16 11:34:20;;;;;;;16.77;10.20;;;3.60;99.90;;;;;;5004177;28;20233;-79
2021/01/16 11:37:01;;;;;;;17.23;10.73;;;3.60;99.90;;;;;;5003544;28;20207;-79
2021/01/16 11:39:49;;;;;;;14.50;9.73;;;3.60;99.90;;;;;;5002859;28;20242;-81
2021/01/16 11:42:17;;;;;;;16.13;10.30;;;3.60;99.90;;;;;;4985344;28;20207;-79
2021/01/16 11:44:58;;;;;;;16.27;9.43;;;3.60;99.90;;;;;;4983777;28;20258;-80
2021/01/16 11:47:26;;;;;;;14.60;10.63;;;3.50;99.90;;;;;;4984561;28;20310;-80
2021/01/16 11:49:53;;;;;;;13.10;9.00;;;3.50;99.90;;;;;;4985365;28;20211;-81
2021/01/16 11:52:20;;;;;;;12.53;7.50;;;3.50;99.90;;;;;;4986168;28;20204;-82
2021/01/16 11:54:48;;;;;;;10.73;7.93;;;3.60;99.90;;;;;;4984901;28;20278;-83
2021/01/16 11:57:18;;;;;;;13.03;8.93;;;3.60;99.90;;;;;;4986079;28;20301;-82
2021/01/16 11:59:46;;;;;;;14.93;9.70;;;3.60;99.90;;;;;;4999207;28;20195;-83
2021/01/16 12:02:13;;;;;;;11.00;7.67;;;3.60;99.90;;;;;;5007256;28;20262;-80
2021/01/16 12:04:43;;;;;;;11.00;8.10;;;3.60;99.90;;;;;;5005238;28;20250;-80
2021/01/16 12:07:13;;;;;;;11.30;7.23;;;3.60;99.90;;;;;;5007642;28;20196;-88
2021/01/16 12:09:43;;;;;;;9.67;7.17;;;3.60;99.90;;;;;;5009127;28;20807;-83
2021/01/16 12:12:11;;;;;;;10.30;6.97;;;3.60;99.90;;;;;;5008872;28;20207;-89
2021/01/16 12:14:39;;;;;;;9.03;5.73;;;3.60;99.90;;;;;;5008918;28;20932;-87
2021/01/16 12:17:07;;;;;;;11.27;6.20;;;3.60;99.90;;;;;;5010059;28;20221;-88
2021/01/16 12:19:34;;;;;;;10.90;6.33;;;3.60;99.90;;;;;;5008581;28;20207;-80
2021/01/16 12:22:05;;;;;;;7.63;5.70;;;3.60;99.90;;;;;;5008614;28;20254;-89
2021/01/16 12:24:32;;;;;;;9.13;5.57;;;3.60;99.90;;;;;;5008323;28;20281;-87
2021/01/16 12:27:01;;;;;;;8.20;5.37;;;3.60;99.90;;;;;;5008065;28;20207;-86
2021/01/16 12:29:37;;;;;;;7.00;5.27;;;3.60;99.90;;;;;;5008888;28;20206;-82
2021/01/16 12:32:05;;;;;;;7.87;5.47;;;3.60;99.90;;;;;;5007864;28;20517;-88
2021/01/16 12:34:31;;;;;;;8.73;5.27;;;3.50;99.90;;;;;;5008743;28;20206;-88
2021/01/16 12:36:58;;;;;;;8.77;5.30;;;3.50;99.90;;;;;;5009198;28;20206;-82
2021/01/16 12:39:24;;;;;;;8.07;5.40;;;3.50;99.90;;;;;;5009862;28;20203;-80
2021/01/16 12:41:56;;;;;;;8.13;5.73;;;3.40;99.90;;;;;;5009055;28;20203;-87
2021/01/16 12:44:24;;;;;;;7.80;5.13;;;3.50;99.90;;;;;;5008402;28;20272;-91
2021/01/16 12:46:51;;;;;;;7.33;5.20;;;3.50;99.90;;;;;;5009351;28;20223;-80
2021/01/16 12:49:19;;;;;;;9.70;5.77;;;3.40;99.90;;;;;;5009609;28;20231;-92
2021/01/16 12:51:47;;;;;;;8.47;5.93;;;3.40;99.90;;;;;;5010726;28;20222;-92
2021/01/16 12:54:17;;;;;;;11.43;7.43;;;3.40;99.90;;;;;;5009389;28;20235;-92
2021/01/16 12:56:44;;;;;;;9.27;5.90;;;3.40;99.90;;;;;;5009687;28;20507;-86
2021/01/16 12:59:15;;;;;;;8.10;5.60;;;3.40;99.90;;;;;;5013473;28;20732;-84
2021/01/16 13:01:45;;;;;;;8.77;6.00;;;3.40;99.90;;;;;;5012874;28;20261;-94
2021/01/16 13:04:12;;;;;;;8.60;6.00;;;3.40;99.90;;;;;;5012218;28;20227;-91
2021/01/16 13:06:41;;;;;;;8.97;6.27;;;3.30;99.90;;;;;;5011518;28;20261;-86
2021/01/16 13:09:08;;;;;;;7.57;5.93;;;3.30;99.90;;;;;;5012178;28;20194;-91
2021/01/16 13:11:35;;;;;;;8.53;6.70;;;3.30;99.90;;;;;;5012789;28;20214;-94
2021/01/16 13:14:03;;;;;;;8.90;6.60;;;3.30;99.90;;;;;;5011875;28;20754;-80
2021/01/16 13:16:44;;;;;;;11.30;7.33;;;3.30;99.90;;;;;;5010867;28;20211;-87